createdAt,value
2023-04-01T00:01:19.696Z,12.20
2023-04-01T00:03:48.335Z,12.20
2023-04-01T00:06:19.821Z,12.30
2023-04-01T00:08:49.535Z,11.90
2023-04-01T00:11:20.502Z,11.50
2023-04-01T00:13:49.728Z,11.50
2023-04-01T00:16:22.144Z,11.40
2023-04-01T00:18:52.233Z,11.50
2023-04-01T00:21:22.882Z,11.20
2023-04-01T00:23:53.290Z,11.30
2023-04-01T00:26:23.431Z,11.20
2023-04-01T00:28:52.315Z,11.40
2023-04-01T00:31:20.904Z,11.00
2023-04-01T00:33:49.410Z,11.70
2023-04-01T00:36:20.127Z,12.20
2023-04-01T00:38:48.896Z,12.70
2023-04-01T00:41:20.441Z,11.30
2023-04-01T00:43:51.763Z,11.40
2023-04-01T00:46:20.549Z,11.80
2023-04-01T00:48:53.296Z,11.70
2023-04-01T00:51:26.044Z,11.40
2023-04-01T00:53:58.144Z,11.20
2023-04-01T00:56:32.622Z,11.30
2023-04-01T00:59:09.139Z,11.00
2023-04-01T01:01:38.482Z,11.40
2023-04-01T01:04:07.136Z,11.70
2023-04-01T01:06:49.104Z,11.70
2023-04-01T01:09:36.745Z,12.40
2023-04-01T01:12:15.411Z,12.30
2023-04-01T01:14:57.490Z,12.10
2023-04-01T01:17:42.054Z,11.90
2023-04-01T01:21:05.631Z,11.20
2023-04-01T01:24:26.180Z,11.30
2023-04-01T01:27:04.731Z,11.60
2023-04-01T01:30:02.206Z,11.30
2023-04-01T01:33:09.030Z,10.90
2023-04-01T01:35:43.411Z,11.60
2023-04-01T01:38:16.895Z,11.70
2023-04-01T01:40:52.811Z,11.50
2023-04-01T01:43:27.129Z,11.80
2023-04-01T01:45:59.387Z,12.10
2023-04-01T01:48:30.709Z,11.50
2023-04-01T01:51:00.851Z,11.40
2023-04-01T01:53:29.144Z,11.50
2023-04-01T01:55:57.885Z,11.40
2023-04-01T01:58:32.216Z,11.00
2023-04-01T02:01:04.536Z,11.60
2023-04-01T02:03:37.885Z,11.40
2023-04-01T02:06:12.484Z,11.70
2023-04-01T02:08:46.534Z,11.80
2023-04-01T02:11:20.159Z,11.30
2023-04-01T02:13:54.708Z,11.20
2023-04-01T02:16:28.237Z,11.00
2023-04-01T02:19:00.527Z,11.10
2023-04-01T02:21:34.408Z,11.30
2023-04-01T02:24:07.523Z,11.60
2023-04-01T02:26:37.175Z,11.10
2023-04-01T02:29:11.163Z,10.90
2023-04-01T02:31:39.704Z,11.50
2023-04-01T02:34:08.188Z,11.80
2023-04-01T02:36:40.007Z,11.80
2023-04-01T02:39:09.225Z,11.70
2023-04-01T02:41:42.573Z,12.00
2023-04-01T02:44:11.670Z,11.70
2023-04-01T02:46:40.154Z,11.90
2023-04-01T02:49:08.646Z,12.60
2023-04-01T02:51:38.595Z,12.00
2023-04-01T02:54:07.023Z,12.50
2023-04-01T02:56:35.482Z,12.10
2023-04-01T02:59:03.799Z,12.40
2023-04-01T03:01:32.155Z,12.60
2023-04-01T03:04:00.462Z,12.20
2023-04-01T03:06:28.800Z,12.30
2023-04-01T03:08:58.634Z,13.30
2023-04-01T03:11:27.261Z,12.20
2023-04-01T03:13:55.594Z,12.00
2023-04-01T03:16:24.573Z,12.70
2023-04-01T03:18:53.719Z,12.60
2023-04-01T03:21:24.327Z,11.80
2023-04-01T03:23:52.706Z,11.50
2023-04-01T03:26:22.562Z,12.10
2023-04-01T03:28:51.052Z,12.40
2023-04-01T03:31:20.440Z,12.20
2023-04-01T03:33:50.743Z,11.70
2023-04-01T03:36:19.572Z,11.80
2023-04-01T03:38:48.314Z,11.50
2023-04-01T03:41:18.641Z,12.40
2023-04-01T03:43:48.297Z,13.10
2023-04-01T03:46:20.097Z,13.40
2023-04-01T03:48:48.788Z,12.70
2023-04-01T03:53:45.888Z,12.20
2023-04-01T03:56:14.256Z,12.20
2023-04-01T03:58:42.634Z,12.20
2023-04-01T04:01:21.714Z,12.00
2023-04-01T04:03:51.246Z,12.10
2023-04-01T04:06:21.293Z,12.20
2023-04-01T04:08:49.669Z,11.80
2023-04-01T04:11:18.821Z,12.70
2023-04-01T04:13:48.750Z,12.40
2023-04-01T04:16:19.413Z,12.40
2023-04-01T04:18:47.760Z,12.70
2023-04-01T04:21:16.815Z,12.40
2023-04-01T04:23:45.641Z,13.00
2023-04-01T04:26:16.957Z,13.00
2023-04-01T04:28:45.282Z,13.50
2023-04-01T04:31:13.808Z,13.10
2023-04-01T04:33:43.543Z,14.00
2023-04-01T04:36:11.921Z,13.70
2023-04-01T04:38:40.293Z,13.60
2023-04-01T04:41:12.855Z,13.10
2023-04-01T04:43:41.737Z,13.50
2023-04-01T04:46:11.018Z,13.80
2023-04-01T04:48:39.502Z,14.10
2023-04-01T04:51:09.215Z,13.50
2023-04-01T04:53:37.549Z,13.80
2023-04-01T04:56:05.905Z,14.00
2023-04-01T04:58:34.769Z,14.00
2023-04-01T05:01:09.330Z,13.10
2023-04-01T05:03:37.743Z,12.70
2023-04-01T05:06:09.492Z,12.40
2023-04-01T05:08:39.819Z,12.20
2023-04-01T05:11:13.944Z,12.50
2023-04-01T05:13:42.709Z,12.20
2023-04-01T05:16:12.712Z,12.00
2023-04-01T05:18:41.505Z,12.10
2023-04-01T05:21:13.278Z,12.30
2023-04-01T05:26:13.483Z,13.50
2023-04-01T05:28:42.162Z,12.70
2023-04-01T05:31:11.372Z,12.30
2023-04-01T05:38:40.713Z,12.00
2023-04-01T05:41:09.036Z,12.60
2023-04-01T05:43:38.661Z,13.00
2023-04-01T05:46:07.076Z,13.30
2023-04-01T05:48:36.298Z,12.30
2023-04-01T05:51:05.190Z,11.90
2023-04-01T05:53:34.965Z,12.80
2023-04-01T05:56:05.946Z,12.50
2023-04-01T05:58:34.330Z,12.30
2023-04-01T06:01:10.099Z,11.80
2023-04-01T06:03:41.156Z,12.20
2023-04-01T06:06:16.919Z,11.40
2023-04-01T06:08:46.630Z,11.30
2023-04-01T06:11:29.187Z,11.20
2023-04-01T06:14:19.284Z,11.60
2023-04-01T06:17:07.545Z,11.70
2023-04-01T06:19:49.767Z,11.80
2023-04-01T06:22:49.855Z,11.60
2023-04-01T06:25:49.921Z,12.00
2023-04-01T06:29:13.244Z,11.90
2023-04-01T06:32:02.180Z,12.10
2023-04-01T06:34:55.356Z,11.60
2023-04-01T06:37:59.891Z,11.50
2023-04-01T06:41:20.590Z,11.90
2023-04-01T06:44:01.381Z,11.90
2023-04-01T06:46:43.212Z,12.70
2023-04-01T06:49:34.343Z,12.40
2023-04-01T06:52:14.951Z,11.20
2023-04-01T06:54:49.240Z,12.40
2023-04-01T06:57:30.702Z,11.60
2023-04-01T07:00:01.929Z,12.40
2023-04-01T07:02:41.360Z,12.30
2023-04-01T07:05:11.882Z,12.00
2023-04-01T07:07:45.705Z,11.70
2023-04-01T07:10:19.886Z,12.00
2023-04-01T07:12:55.943Z,12.30
2023-04-01T07:15:32.234Z,12.20
2023-04-01T07:18:09.260Z,12.10
2023-04-01T07:20:40.075Z,11.70
2023-04-01T07:23:17.575Z,11.30
2023-04-01T07:25:49.380Z,11.60
2023-04-01T07:28:19.318Z,11.60
2023-04-01T07:31:04.798Z,11.80
2023-04-01T07:33:41.588Z,11.30
2023-04-01T07:36:20.136Z,11.60
2023-04-01T07:39:01.382Z,11.60
2023-04-01T07:41:43.342Z,11.20
2023-04-01T07:44:20.352Z,12.40
2023-04-01T07:47:05.725Z,13.10
2023-04-01T07:49:43.928Z,11.90
2023-04-01T07:52:20.534Z,11.70
2023-04-01T07:54:57.530Z,11.30
2023-04-01T07:57:36.049Z,12.40
2023-04-01T08:00:14.925Z,11.80
2023-04-01T08:03:05.592Z,11.90
2023-04-01T08:05:44.613Z,11.20
2023-04-01T08:08:21.955Z,12.00
2023-04-01T08:10:57.637Z,11.90
2023-04-01T08:13:39.585Z,12.70
2023-04-01T08:16:18.876Z,13.40
2023-04-01T08:19:02.290Z,13.30
2023-04-01T08:21:34.746Z,13.00
2023-04-01T08:24:13.433Z,12.50
2023-04-01T08:26:46.512Z,13.00
2023-04-01T08:29:21.713Z,12.50
2023-04-01T08:31:57.459Z,12.60
2023-04-01T08:34:30.363Z,13.00
2023-04-01T08:37:06.436Z,12.90
2023-04-01T08:39:40.101Z,12.30
2023-04-01T08:42:54.384Z,12.40
2023-04-01T08:46:16.294Z,12.20
2023-04-01T08:52:09.721Z,12.90
2023-04-01T08:55:24.788Z,12.10
2023-04-01T09:03:46.590Z,12.60
2023-04-01T09:06:33.807Z,11.70
2023-04-01T09:09:56.027Z,12.10
2023-04-01T09:13:02.165Z,12.80
2023-04-01T09:16:17.877Z,11.90
2023-04-01T09:19:28.393Z,11.40
2023-04-01T09:28:15.029Z,11.90
2023-04-01T09:31:26.123Z,13.20
2023-04-01T09:34:22.649Z,13.20
2023-04-01T09:37:09.524Z,11.80
2023-04-01T09:39:46.117Z,12.20
2023-04-01T09:42:43.610Z,13.30
2023-04-01T09:45:26.003Z,12.50
2023-04-01T09:48:12.866Z,12.60
2023-04-01T10:00:17.933Z,12.10
2023-04-01T10:03:33.955Z,12.80
2023-04-01T10:07:02.168Z,12.40
2023-04-01T10:10:21.904Z,12.90
2023-04-01T10:13:19.821Z,11.80
2023-04-01T10:16:44.051Z,11.60
2023-04-01T10:19:49.097Z,11.70
2023-04-01T10:22:38.664Z,11.60
2023-04-01T10:25:29.906Z,12.00
2023-04-01T10:28:57.324Z,11.80
2023-04-01T10:32:17.710Z,12.00
2023-04-01T10:35:36.410Z,12.50
2023-04-01T10:39:10.381Z,12.30
2023-04-01T10:42:18.527Z,12.40
2023-04-01T10:45:29.238Z,11.80
2023-04-01T10:48:25.706Z,12.30
2023-04-01T10:51:19.852Z,12.10
2023-04-01T10:54:21.697Z,11.90
2023-04-01T10:56:58.215Z,12.60
2023-04-01T11:00:32.936Z,12.80
2023-04-01T11:03:54.330Z,12.30
2023-04-01T11:13:33.945Z,12.40
2023-04-01T11:16:47.459Z,12.40
2023-04-01T11:20:10.239Z,13.60
2023-04-01T11:23:28.339Z,13.90
2023-04-01T11:26:10.142Z,13.00
2023-04-01T11:29:21.327Z,12.90
2023-04-01T11:32:03.148Z,12.40
2023-04-01T11:35:02.161Z,13.20
2023-04-01T11:37:43.348Z,12.50
2023-04-01T11:40:24.673Z,12.40
2023-04-01T11:43:01.403Z,12.70
2023-04-01T11:45:40.823Z,12.30
2023-04-01T11:48:36.165Z,12.00
2023-04-01T11:51:57.605Z,12.00
2023-04-01T11:54:40.894Z,13.00
2023-04-01T11:57:48.541Z,12.80
2023-04-01T12:01:00.155Z,12.30
2023-04-01T12:04:30.171Z,12.40
2023-04-01T12:07:07.892Z,12.40
2023-04-01T12:09:47.391Z,12.00
2023-04-01T12:12:29.322Z,12.00
2023-04-01T12:15:16.688Z,11.90
2023-04-01T12:17:53.155Z,11.90
2023-04-01T12:20:39.715Z,12.20
2023-04-01T12:23:31.581Z,12.60
2023-04-01T12:26:17.410Z,12.60
2023-04-01T12:29:06.651Z,12.80
2023-04-01T12:31:48.091Z,13.20
2023-04-01T12:34:59.382Z,13.40
2023-04-01T12:37:41.731Z,12.50
2023-04-01T12:40:33.777Z,12.00
2023-04-01T12:43:25.345Z,12.70
2023-04-01T12:46:05.070Z,12.60
2023-04-01T12:49:21.845Z,13.00
2023-04-01T12:52:11.170Z,13.00
2023-04-01T12:55:31.309Z,12.80
2023-04-01T12:58:46.580Z,12.90
2023-04-01T13:04:50.006Z,12.80
2023-04-01T13:07:48.612Z,12.30
2023-04-01T13:10:44.106Z,12.20
2023-04-01T13:13:46.621Z,12.60
2023-04-01T13:52:57.328Z,12.20
2023-04-01T13:55:57.303Z,12.60
2023-04-01T14:21:24.827Z,12.70
2023-04-01T14:24:25.646Z,12.90
2023-04-01T14:27:21.267Z,12.90
2023-04-01T14:32:50.472Z,13.00
2023-04-01T14:35:37.591Z,13.10
2023-04-01T14:38:35.656Z,12.80
2023-04-01T14:41:19.333Z,13.00
2023-04-01T14:44:28.157Z,13.30
2023-04-01T14:47:33.316Z,12.50
2023-04-01T14:50:14.456Z,13.00
2023-04-01T14:52:48.717Z,13.00
2023-04-01T14:55:33.588Z,12.70
2023-04-01T14:58:11.996Z,13.20
2023-04-01T15:00:54.271Z,13.50
2023-04-01T15:03:31.510Z,13.60
2023-04-01T15:06:37.717Z,13.80
2023-04-01T15:09:14.548Z,13.10
2023-04-01T15:11:58.623Z,12.50
2023-04-01T15:14:49.161Z,12.20
2023-04-01T15:17:45.464Z,12.00
2023-04-01T15:20:47.709Z,12.70
2023-04-01T15:23:32.173Z,12.80
2023-04-01T15:26:24.078Z,13.20
2023-04-01T15:29:18.499Z,14.10
2023-04-01T15:31:59.151Z,12.90
2023-04-01T15:34:38.850Z,13.70
2023-04-01T15:37:17.112Z,13.00
2023-04-01T15:39:57.971Z,13.00
2023-04-01T15:42:46.263Z,12.40
2023-04-01T15:45:35.864Z,13.20
2023-04-01T15:48:29.941Z,13.70
2023-04-01T15:51:13.386Z,13.90
2023-04-01T15:54:18.734Z,13.70
2023-04-01T15:57:06.316Z,13.10
2023-04-01T16:00:17.355Z,12.80
2023-04-01T16:02:54.875Z,12.60
2023-04-01T16:05:44.012Z,13.00
2023-04-01T16:08:44.307Z,12.90
2023-04-01T16:11:24.028Z,13.70
2023-04-01T16:19:49.291Z,14.70
2023-04-01T16:22:25.171Z,14.40
2023-04-01T16:25:03.517Z,14.10
2023-04-01T16:27:42.563Z,13.80
2023-04-01T16:30:35.889Z,14.10
2023-04-01T16:33:12.501Z,13.70
2023-04-01T16:35:49.409Z,14.00
2023-04-01T16:38:26.667Z,13.80
2023-04-01T16:41:09.916Z,13.30
2023-04-01T16:43:47.667Z,13.80
2023-04-01T16:46:41.643Z,13.80
2023-04-01T16:49:35.108Z,14.40
2023-04-01T16:52:19.540Z,14.10
2023-04-01T16:54:57.901Z,14.20
2023-04-01T16:57:32.500Z,13.00
2023-04-01T17:00:17.078Z,13.90
2023-04-01T17:02:57.492Z,14.20
2023-04-01T17:05:52.181Z,14.00
2023-04-01T17:08:32.557Z,13.40
2023-04-01T17:11:12.779Z,14.00
2023-04-01T17:13:55.768Z,14.20
2023-04-01T17:16:50.504Z,13.70
2023-04-01T17:19:42.747Z,13.80
2023-04-01T17:22:27.827Z,13.60
2023-04-01T17:25:12.310Z,13.30
2023-04-01T17:27:53.031Z,13.90
2023-04-01T17:30:33.910Z,13.50
2023-04-01T17:36:03.861Z,13.90
2023-04-01T17:39:40.825Z,14.10
2023-04-01T17:42:14.166Z,14.50
2023-04-01T17:44:55.991Z,14.10
2023-04-01T17:47:43.301Z,13.90
2023-04-01T17:50:26.762Z,14.50
2023-04-01T18:24:02.722Z,14.60
2023-04-01T18:26:37.027Z,14.60
2023-04-01T18:29:16.616Z,14.40
2023-04-01T18:31:49.933Z,14.60
2023-04-01T19:19:43.815Z,13.90
2023-04-01T19:27:50.815Z,14.80
2023-04-01T19:30:48.254Z,15.30
2023-04-01T19:33:35.996Z,15.30
2023-04-01T19:36:18.655Z,15.10
2023-04-01T19:39:02.760Z,15.20
2023-04-01T19:41:41.723Z,15.30
2023-04-01T19:47:03.794Z,15.30
2023-04-01T19:49:54.938Z,14.20
2023-04-01T19:52:34.261Z,14.50
2023-04-01T19:55:16.888Z,14.20
2023-04-01T19:57:54.958Z,13.90
2023-04-01T20:05:52.996Z,12.80
2023-04-01T20:08:34.155Z,12.80
2023-04-01T20:11:19.084Z,13.10
2023-04-01T20:14:00.482Z,13.20
2023-04-01T20:16:51.095Z,13.00
2023-04-01T20:19:37.326Z,12.70
2023-04-01T20:22:18.441Z,12.50
2023-04-01T20:24:49.126Z,12.80
2023-04-01T20:27:23.420Z,12.40
2023-04-01T20:30:29.248Z,12.50
2023-04-01T20:33:25.267Z,13.10
2023-04-01T20:36:08.956Z,12.80
2023-04-01T20:39:21.668Z,12.70
2023-04-01T20:42:14.171Z,12.60
2023-04-01T20:44:48.735Z,12.20
2023-04-01T20:47:24.583Z,12.00
2023-04-01T20:50:02.851Z,12.40
2023-04-01T20:52:42.987Z,12.40
2023-04-01T20:55:36.980Z,11.20
2023-04-01T20:58:19.669Z,11.60
2023-04-01T21:03:47.355Z,11.60
2023-04-01T21:06:39.592Z,12.00
2023-04-01T21:09:32.164Z,11.90
2023-04-01T21:12:11.763Z,12.10
2023-04-01T21:15:21.303Z,11.30
2023-04-01T21:18:06.532Z,11.40
2023-04-01T21:21:16.788Z,11.60
2023-04-01T21:24:30.883Z,11.20
2023-04-01T21:27:11.459Z,11.40
2023-04-01T21:29:59.096Z,11.50
2023-04-01T21:32:55.037Z,11.00
2023-04-01T21:35:37.664Z,11.30
2023-04-01T21:38:41.133Z,11.10
2023-04-01T21:41:32.285Z,11.20
2023-04-01T21:44:49.789Z,11.50
2023-04-01T21:48:08.289Z,11.00
2023-04-01T21:50:55.683Z,12.40
2023-04-01T21:54:24.863Z,11.50
2023-04-01T21:57:46.836Z,11.50
2023-04-01T22:00:21.486Z,11.80
2023-04-01T22:03:47.955Z,11.40
2023-04-01T22:06:27.047Z,11.20
2023-04-01T22:09:07.758Z,11.70
2023-04-01T22:11:55.412Z,11.20
2023-04-01T22:14:32.522Z,11.30
2023-04-01T22:17:09.121Z,11.10
2023-04-01T22:19:47.714Z,11.30
2023-04-01T22:22:24.760Z,11.10
